Time,TemperatureF,DewpointF,PressureIn,WindDirection,WindDirectionDegrees,WindSpeedMPH,WindSpeedGustMPH,Humidity,HourlyPrecipIn,Conditions,Clouds,dailyrainin,SoftwareType,DateUTC
2013-03-24 00:02:00,40.0,26.0,29.86,NNE,17,7.0,15.0,57,0.00,,,0.00,,2013-03-24 05:02:00,
2013-03-24 00:12:00,40.0,26.0,29.86,NNE,17,7.0,15.0,57,0.00,,,0.00,,2013-03-24 05:12:00,
2013-03-24 00:22:00,40.0,26.0,29.86,NNE,17,7.0,15.0,57,0.00,,,0.00,,2013-03-24 05:22:00,
2013-03-24 00:32:00,40.0,27.0,29.85,NE,34,8.0,20.0,59,0.00,,,0.00,,2013-03-24 05:32:00,
2013-03-24 00:43:00,40.0,27.0,29.85,NE,34,8.0,20.0,59,0.00,,,0.00,,2013-03-24 05:43:00,
2013-03-24 00:52:00,40.0,27.0,29.85,NE,34,8.0,20.0,59,0.00,,,0.00,,2013-03-24 05:52:00,
2013-03-24 01:02:00,39.0,27.0,29.85,NNE,26,10.0,17.0,62,0.00,,,0.00,,2013-03-24 06:02:00,
2013-03-24 01:12:00,39.0,27.0,29.85,NNE,26,10.0,17.0,62,0.00,,,0.00,,2013-03-24 06:12:00,
2013-03-24 01:22:00,39.0,27.0,29.85,NNE,26,10.0,17.0,62,0.00,,,0.00,,2013-03-24 06:22:00,
2013-03-24 01:32:00,38.0,26.0,29.85,ENE,57,11.0,18.0,62,0.00,,,0.00,,2013-03-24 06:32:00,
2013-03-24 01:42:00,38.0,26.0,29.85,ENE,57,11.0,18.0,62,0.00,,,0.00,,2013-03-24 06:42:00,
2013-03-24 01:52:00,38.0,26.0,29.85,ENE,57,11.0,18.0,62,0.00,,,0.00,,2013-03-24 06:52:00,
2013-03-24 02:02:00,37.0,27.0,29.88,ENE,62,8.0,13.0,66,0.00,,,0.00,,2013-03-24 07:02:00,
2013-03-24 02:12:00,37.0,27.0,29.88,ENE,62,8.0,13.0,66,0.00,,,0.00,,2013-03-24 07:12:00,
2013-03-24 02:22:00,37.0,27.0,29.88,ENE,62,8.0,13.0,66,0.00,,,0.00,,2013-03-24 07:22:00,
2013-03-24 02:32:00,37.0,28.0,29.89,ENE,61,8.0,14.0,69,0.00,,,0.00,,2013-03-24 07:32:00,
2013-03-24 02:42:00,37.0,28.0,29.89,ENE,61,8.0,14.0,69,0.00,,,0.00,,2013-03-24 07:42:00,
2013-03-24 02:52:00,37.0,28.0,29.89,ENE,61,8.0,14.0,69,0.00,,,0.00,,2013-03-24 07:52:00,
2013-03-24 03:03:00,35.0,28.0,29.88,NNE,22,9.0,14.0,76,0.00,,,0.00,,2013-03-24 08:03:00,
2013-03-24 03:12:00,35.0,28.0,29.88,NNE,22,9.0,14.0,76,0.00,,,0.00,,2013-03-24 08:12:00,
2013-03-24 03:22:00,35.0,28.0,29.88,NNE,22,9.0,14.0,76,0.00,,,0.00,,2013-03-24 08:22:00,
2013-03-24 03:32:00,32.0,28.0,29.87,NE,37,7.0,14.0,84,0.00,,,0.00,,2013-03-24 08:32:00,
2013-03-24 03:42:00,32.0,28.0,29.87,NE,37,7.0,14.0,84,0.00,,,0.00,,2013-03-24 08:42:00,
2013-03-24 03:52:00,32.0,28.0,29.87,NE,37,7.0,14.0,84,0.00,,,0.00,,2013-03-24 08:52:00,
2013-03-24 04:02:00,31.0,28.0,29.84,North,355,7.0,13.0,88,0.00,,,0.00,,2013-03-24 09:02:00,
2013-03-24 04:12:00,31.0,28.0,29.84,North,355,7.0,13.0,88,0.00,,,0.00,,2013-03-24 09:12:00,
2013-03-24 04:22:00,31.0,28.0,29.84,North,355,7.0,13.0,88,0.00,,,0.00,,2013-03-24 09:22:00,
2013-03-24 04:33:00,30.0,27.0,29.82,NNE,29,7.0,17.0,90,0.00,,,0.00,,2013-03-24 09:33:00,
2013-03-24 04:43:00,30.0,27.0,29.82,NNE,29,7.0,17.0,90,0.00,,,0.00,,2013-03-24 09:43:00,
2013-03-24 04:52:00,30.0,27.0,29.82,NNE,29,7.0,17.0,90,0.00,,,0.00,,2013-03-24 09:52:00,
2013-03-24 05:03:00,30.0,28.0,29.80,NE,34,9.0,16.0,91,0.00,,,0.00,,2013-03-24 10:03:00,
2013-03-24 05:12:00,30.0,28.0,29.80,NE,34,9.0,16.0,91,0.00,,,0.00,,2013-03-24 10:12:00,
2013-03-24 05:22:00,30.0,28.0,29.80,NE,34,9.0,16.0,91,0.00,,,0.00,,2013-03-24 10:22:00,
2013-03-24 05:33:00,30.0,28.0,29.78,NE,38,8.0,16.0,91,0.00,,,0.00,,2013-03-24 10:33:00,
2013-03-24 05:42:00,30.0,28.0,29.78,NE,38,8.0,16.0,91,0.00,,,0.00,,2013-03-24 10:42:00,
2013-03-24 05:52:00,30.0,28.0,29.78,NE,38,8.0,16.0,91,0.00,,,0.00,,2013-03-24 10:52:00,
2013-03-24 06:03:00,30.0,27.0,29.76,NE,47,7.0,18.0,90,0.00,,,0.00,,2013-03-24 11:03:00,
2013-03-24 06:12:00,30.0,27.0,29.76,NE,47,7.0,18.0,90,0.00,,,0.00,,2013-03-24 11:12:00,
2013-03-24 06:22:00,30.0,27.0,29.76,NE,47,7.0,18.0,90,0.00,,,0.00,,2013-03-24 11:22:00,
2013-03-24 06:33:00,31.0,28.0,29.74,North,350,8.0,17.0,90,0.00,,,0.00,,2013-03-24 11:33:00,
2013-03-24 06:42:00,31.0,28.0,29.74,North,350,8.0,17.0,90,0.00,,,0.00,,2013-03-24 11:42:00,
2013-03-24 06:52:00,31.0,28.0,29.74,North,350,8.0,17.0,90,0.00,,,0.00,,2013-03-24 11:52:00,
2013-03-24 07:02:00,31.0,28.0,29.72,ENE,58,11.0,15.0,90,0.00,,,0.00,,2013-03-24 12:02:00,
2013-03-24 07:12:00,31.0,28.0,29.72,ENE,58,11.0,15.0,90,0.00,,,0.00,,2013-03-24 12:12:00,
2013-03-24 07:22:00,31.0,28.0,29.72,ENE,58,11.0,15.0,90,0.00,,,0.00,,2013-03-24 12:22:00,
2013-03-24 07:32:00,31.0,28.0,29.73,East,84,10.0,17.0,89,0.00,,,0.00,,2013-03-24 12:32:00,
2013-03-24 07:42:00,31.0,28.0,29.73,East,84,10.0,17.0,89,0.00,,,0.00,,2013-03-24 12:42:00,
2013-03-24 07:52:00,31.0,28.0,29.73,East,84,10.0,17.0,89,0.00,,,0.00,,2013-03-24 12:52:00,
2013-03-24 08:02:00,31.0,28.0,29.71,North,4,9.0,18.0,89,0.00,,,0.00,,2013-03-24 13:02:00,
2013-03-24 08:12:00,31.0,28.0,29.71,North,4,9.0,18.0,89,0.00,,,0.00,,2013-03-24 13:12:00,
2013-03-24 08:22:00,31.0,28.0,29.71,North,4,9.0,18.0,89,0.00,,,0.00,,2013-03-24 13:22:00,
2013-03-24 08:32:00,31.0,28.0,29.69,NE,52,11.0,18.0,89,0.00,,,0.00,,2013-03-24 13:32:00,
2013-03-24 08:43:00,31.0,28.0,29.69,NE,52,11.0,18.0,89,0.00,,,0.00,,2013-03-24 13:43:00,
2013-03-24 08:52:00,31.0,28.0,29.69,NE,52,11.0,18.0,89,0.00,,,0.00,,2013-03-24 13:52:00,
2013-03-24 09:02:00,32.0,29.0,29.68,North,360,8.0,15.0,89,0.00,,,0.00,,2013-03-24 14:02:00,
2013-03-24 09:12:00,32.0,29.0,29.68,North,360,8.0,15.0,89,0.00,,,0.00,,2013-03-24 14:12:00,
2013-03-24 09:22:00,32.0,29.0,29.68,North,360,8.0,15.0,89,0.00,,,0.00,,2013-03-24 14:22:00,
2013-03-24 09:32:00,32.0,29.0,29.65,NE,47,9.0,17.0,89,0.00,,,0.00,,2013-03-24 14:32:00,
2013-03-24 09:43:00,32.0,29.0,29.65,NE,47,9.0,17.0,89,0.00,,,0.00,,2013-03-24 14:43:00,
2013-03-24 09:52:00,32.0,29.0,29.65,NE,47,9.0,17.0,89,0.00,,,0.00,,2013-03-24 14:52:00,
2013-03-24 10:02:00,32.0,29.0,29.61,NE,41,13.0,21.0,88,0.00,,,0.00,,2013-03-24 15:02:00,
2013-03-24 10:12:00,32.0,29.0,29.61,NE,41,13.0,21.0,88,0.00,,,0.00,,2013-03-24 15:12:00,
2013-03-24 10:22:00,32.0,29.0,29.61,NE,41,13.0,21.0,88,0.00,,,0.00,,2013-03-24 15:22:00,
2013-03-24 10:33:00,33.0,30.0,29.62,East,86,7.0,17.0,88,0.00,,,0.00,,2013-03-24 15:33:00,
2013-03-24 10:43:00,33.0,30.0,29.62,East,86,7.0,17.0,88,0.00,,,0.00,,2013-03-24 15:43:00,
2013-03-24 10:53:00,33.0,30.0,29.62,East,86,7.0,17.0,88,0.00,,,0.00,,2013-03-24 15:53:00,
2013-03-24 11:03:00,33.0,30.0,29.58,ENE,65,12.0,18.0,88,0.00,,,0.00,,2013-03-24 16:03:00,
2013-03-24 11:12:00,33.0,30.0,29.58,ENE,65,12.0,18.0,88,0.00,,,0.00,,2013-03-24 16:12:00,
2013-03-24 11:23:00,33.0,30.0,29.58,ENE,65,12.0,18.0,88,0.00,,,0.00,,2013-03-24 16:23:00,
2013-03-24 11:33:00,33.0,30.0,29.52,NNE,33,13.0,26.0,89,0.00,,,0.00,,2013-03-24 16:33:00,
2013-03-24 11:43:00,33.0,30.0,29.52,NNE,33,13.0,26.0,89,0.00,,,0.00,,2013-03-24 16:43:00,
2013-03-24 11:52:00,33.0,30.0,29.52,NNE,33,13.0,26.0,89,0.00,,,0.00,,2013-03-24 16:52:00,
2013-03-24 12:02:00,34.0,31.0,29.52,ENE,63,14.0,22.0,88,0.01,,,0.01,,2013-03-24 17:02:00,
2013-03-24 12:12:00,34.0,31.0,29.52,ENE,63,14.0,22.0,88,0.01,,,0.01,,2013-03-24 17:12:00,
2013-03-24 12:23:00,34.0,31.0,29.52,ENE,63,14.0,22.0,88,0.01,,,0.01,,2013-03-24 17:23:00,
2013-03-24 12:33:00,34.0,31.0,29.59,WNW,299,3.0,8.0,87,0.02,,,0.02,,2013-03-24 17:33:00,
2013-03-24 12:43:00,34.0,31.0,29.59,WNW,299,3.0,8.0,87,0.02,,,0.02,,2013-03-24 17:43:00,
2013-03-24 12:53:00,34.0,31.0,29.59,WNW,299,3.0,8.0,87,0.02,,,0.02,,2013-03-24 17:53:00,
2013-03-24 13:03:00,33.0,30.0,29.56,NNE,26,7.0,13.0,89,0.01,,,0.02,,2013-03-24 18:03:00,
2013-03-24 13:12:00,33.0,30.0,29.56,NNE,26,7.0,13.0,89,0.01,,,0.02,,2013-03-24 18:12:00,
2013-03-24 13:22:00,33.0,30.0,29.56,NNE,26,7.0,13.0,89,0.01,,,0.02,,2013-03-24 18:22:00,
2013-03-24 13:32:00,33.0,31.0,29.52,North,360,5.0,10.0,91,0.00,,,0.02,,2013-03-24 18:32:00,
2013-03-24 13:43:00,33.0,31.0,29.52,North,360,5.0,10.0,91,0.00,,,0.02,,2013-03-24 18:43:00,
2013-03-24 13:52:00,33.0,31.0,29.52,North,360,5.0,10.0,91,0.00,,,0.02,,2013-03-24 18:52:00,
2013-03-24 14:02:00,33.0,31.0,29.52,North,11,0.0,0.0,92,0.00,,,0.02,,2013-03-24 19:02:00,
2013-03-24 14:12:00,33.0,31.0,29.52,North,11,0.0,0.0,92,0.00,,,0.02,,2013-03-24 19:12:00,
2013-03-24 14:22:00,33.0,31.0,29.52,North,11,0.0,0.0,92,0.00,,,0.02,,2013-03-24 19:22:00,
2013-03-24 14:32:00,33.0,31.0,29.52,NE,46,0.0,0.0,92,0.00,,,0.02,,2013-03-24 19:32:00,
2013-03-24 14:43:00,33.0,31.0,29.52,NE,46,0.0,0.0,92,0.00,,,0.02,,2013-03-24 19:43:00,
2013-03-24 14:53:00,33.0,31.0,29.52,NE,46,0.0,0.0,92,0.00,,,0.02,,2013-03-24 19:53:00,
2013-03-24 15:02:00,33.0,31.0,29.50,NNE,21,0.0,0.0,92,0.00,,,0.02,,2013-03-24 20:02:00,
2013-03-24 15:12:00,33.0,31.0,29.50,NNE,21,0.0,0.0,92,0.00,,,0.02,,2013-03-24 20:12:00,
2013-03-24 15:22:00,33.0,31.0,29.50,NNE,21,0.0,0.0,92,0.00,,,0.02,,2013-03-24 20:22:00,
2013-03-24 15:32:00,32.0,30.0,29.49,NNE,30,7.0,16.0,92,0.01,,,0.03,,2013-03-24 20:32:00,
2013-03-24 15:43:00,32.0,30.0,29.49,NNE,30,7.0,16.0,92,0.01,,,0.03,,2013-03-24 20:43:00,
2013-03-24 15:53:00,32.0,30.0,29.49,NNE,30,7.0,16.0,92,0.01,,,0.03,,2013-03-24 20:53:00,
2013-03-24 16:02:00,32.0,30.0,29.49,NNE,19,6.0,16.0,92,0.01,,,0.03,,2013-03-24 21:02:00,
2013-03-24 16:12:00,32.0,30.0,29.49,NNE,19,6.0,16.0,92,0.01,,,0.03,,2013-03-24 21:12:00,
2013-03-24 16:22:00,32.0,30.0,29.49,NNE,19,6.0,16.0,92,0.01,,,0.03,,2013-03-24 21:22:00,
2013-03-24 16:33:00,31.0,29.0,29.49,North,4,10.0,19.0,93,0.00,,,0.03,,2013-03-24 21:33:00,
2013-03-24 16:43:00,31.0,29.0,29.49,North,4,10.0,19.0,93,0.00,,,0.03,,2013-03-24 21:43:00,
2013-03-24 16:53:00,31.0,29.0,29.49,North,4,10.0,19.0,93,0.00,,,0.03,,2013-03-24 21:53:00,
2013-03-24 17:02:00,31.0,29.0,29.50,North,360,10.0,18.0,93,0.00,,,0.03,,2013-03-24 22:02:00,
2013-03-24 17:13:00,31.0,29.0,29.50,North,360,10.0,18.0,93,0.00,,,0.03,,2013-03-24 22:13:00,
2013-03-24 17:23:00,31.0,29.0,29.50,North,360,10.0,18.0,93,0.00,,,0.03,,2013-03-24 22:23:00,
2013-03-24 17:33:00,31.0,29.0,29.50,North,360,9.0,19.0,93,0.00,,,0.03,,2013-03-24 22:33:00,
2013-03-24 17:43:00,31.0,29.0,29.50,North,360,9.0,19.0,93,0.00,,,0.03,,2013-03-24 22:43:00,
2013-03-24 17:52:00,31.0,29.0,29.50,North,360,9.0,19.0,93,0.00,,,0.03,,2013-03-24 22:52:00,
2013-03-24 18:02:00,31.0,29.0,29.49,NE,36,10.0,21.0,93,0.01,,,0.04,,2013-03-24 23:02:00,
2013-03-24 18:12:00,31.0,29.0,29.49,NE,36,10.0,21.0,93,0.01,,,0.04,,2013-03-24 23:12:00,
2013-03-24 18:22:00,31.0,29.0,29.49,NE,36,10.0,21.0,93,0.01,,,0.04,,2013-03-24 23:22:00,
2013-03-24 18:32:00,31.0,29.0,29.51,NNE,22,11.0,23.0,93,0.02,,,0.05,,2013-03-24 23:32:00,
2013-03-24 18:42:00,31.0,29.0,29.51,NNE,22,11.0,23.0,93,0.02,,,0.05,,2013-03-24 23:42:00,
2013-03-24 18:53:00,31.0,29.0,29.51,NNE,22,11.0,23.0,93,0.02,,,0.05,,2013-03-24 23:53:00,
2013-03-24 19:02:00,31.0,29.0,29.53,NNW,339,10.0,20.0,93,0.01,,,0.05,,2013-03-25 00:02:00,
2013-03-24 19:12:00,31.0,29.0,29.53,NNW,339,10.0,20.0,93,0.01,,,0.05,,2013-03-25 00:12:00,
2013-03-24 19:22:00,31.0,29.0,29.53,NNW,339,10.0,20.0,93,0.01,,,0.05,,2013-03-25 00:22:00,
2013-03-24 19:32:00,31.0,29.0,29.56,NNW,329,9.0,17.0,93,0.01,,,0.06,,2013-03-25 00:32:00,
2013-03-24 19:43:00,31.0,29.0,29.56,NNW,329,9.0,17.0,93,0.01,,,0.06,,2013-03-25 00:43:00,
2013-03-24 19:53:00,31.0,29.0,29.56,NNW,329,9.0,17.0,93,0.01,,,0.06,,2013-03-25 00:53:00,
2013-03-24 20:02:00,31.0,29.0,29.58,NW,308,10.0,19.0,93,0.01,,,0.06,,2013-03-25 01:02:00,
2013-03-24 20:12:00,31.0,29.0,29.58,NW,308,10.0,19.0,93,0.01,,,0.06,,2013-03-25 01:12:00,
2013-03-24 20:22:00,31.0,29.0,29.58,NW,308,10.0,19.0,93,0.01,,,0.06,,2013-03-25 01:22:00,
2013-03-24 20:32:00,30.0,28.0,29.60,NNW,346,10.0,17.0,93,0.00,,,0.06,,2013-03-25 01:32:00,
2013-03-24 20:42:00,30.0,28.0,29.60,NNW,346,10.0,17.0,93,0.00,,,0.06,,2013-03-25 01:42:00,
2013-03-24 20:52:00,30.0,28.0,29.60,NNW,346,10.0,17.0,93,0.00,,,0.06,,2013-03-25 01:52:00,
2013-03-24 21:02:00,31.0,29.0,29.62,NNW,333,12.0,16.0,93,0.00,,,0.06,,2013-03-25 02:02:00,
2013-03-24 21:12:00,31.0,29.0,29.62,NNW,333,12.0,16.0,93,0.00,,,0.06,,2013-03-25 02:12:00,
2013-03-24 21:22:00,31.0,29.0,29.62,NNW,333,12.0,16.0,93,0.00,,,0.06,,2013-03-25 02:22:00,
2013-03-24 21:32:00,31.0,29.0,29.62,NNW,333,12.0,16.0,93,0.00,,,0.06,,2013-03-25 02:32:00,
2013-03-24 22:02:00,31.0,29.0,29.64,NNW,328,12.0,17.0,93,0.01,,,0.07,,2013-03-25 03:02:00,
2013-03-24 22:13:00,31.0,29.0,29.64,NNW,328,12.0,17.0,93,0.01,,,0.07,,2013-03-25 03:13:00,
2013-03-24 22:22:00,31.0,29.0,29.64,NNW,328,12.0,17.0,93,0.01,,,0.07,,2013-03-25 03:22:00,
2013-03-24 22:33:00,31.0,29.0,29.65,NNW,332,8.0,14.0,93,0.00,,,0.07,,2013-03-25 03:33:00,
2013-03-24 22:43:00,31.0,29.0,29.65,NNW,332,8.0,14.0,93,0.00,,,0.07,,2013-03-25 03:43:00,
2013-03-24 22:53:00,31.0,29.0,29.65,NNW,332,8.0,14.0,93,0.00,,,0.07,,2013-03-25 03:53:00,
2013-03-24 23:02:00,31.0,29.0,29.65,NW,324,7.0,11.0,93,0.00,,,0.07,,2013-03-25 04:02:00,
2013-03-24 23:12:00,31.0,29.0,29.65,NW,324,7.0,11.0,93,0.00,,,0.07,,2013-03-25 04:12:00,
2013-03-24 23:22:00,31.0,29.0,29.65,NW,324,7.0,11.0,93,0.00,,,0.07,,2013-03-25 04:22:00,
2013-03-24 23:33:00,30.0,28.0,29.66,WNW,295,7.0,16.0,94,0.01,,,0.08,,2013-03-25 04:33:00,
2013-03-24 23:43:00,30.0,28.0,29.66,WNW,295,7.0,16.0,94,0.01,,,0.08,,2013-03-25 04:43:00,
2013-03-24 23:52:00,30.0,28.0,29.66,WNW,295,7.0,16.0,94,0.01,,,0.08,,2013-03-25 04:52:00,